Time;durP1;ratioP1;P1;durP2;ratioP2;P2;SDS_P1;SDS_P2;PMS_P1;PMS_P2;Temp;Humidity;BMP_temperature;BMP_pressure;BME280_temperature;BME280_humidity;BME280_pressure;Samples;Min_cycle;Max_cycle;Signal;HPM_P1;HPM_P2
2024/03/12 00:01:45;;;;;;;37.07;28.30;;;;;;;;;;4995347;28;20482;-76
2024/03/12 00:04:11;;;;;;;38.40;25.87;;;;;;;;;;4995549;28;20460;-76
2024/03/12 00:06:37;;;;;;;41.90;27.77;;;;;;;;;;4995353;28;20419;-75
2024/03/12 00:09:06;;;;;;;37.93;27.63;;;;;;;;;;4994067;28;20430;-78
2024/03/12 00:11:32;;;;;;;40.13;27.93;;;;;;;;;;4994829;28;20451;-76
2024/03/12 00:13:58;;;;;;;38.30;26.60;;;;;;;;;;4995265;28;20423;-75
2024/03/12 00:16:24;;;;;;;48.23;31.70;;;;;;;;;;4995270;28;20477;-78
2024/03/12 00:18:55;;;;;;;37.17;28.23;;;;;;;;;;4994956;28;20497;-79
2024/03/12 00:21:21;;;;;;;38.30;28.07;;;;;;;;;;4995201;28;20498;-75
2024/03/12 00:23:48;;;;;;;46.20;30.67;;;;;;;;;;4994818;28;20400;-75
2024/03/12 00:26:14;;;;;;;38.77;27.73;;;;;;;;;;4995202;28;20410;-77
2024/03/12 00:28:40;;;;;;;41.90;28.20;;;;;;;;;;4995038;28;20400;-76
2024/03/12 00:31:06;;;;;;;40.77;27.13;;;;;;;;;;4994964;28;20798;-78
2024/03/12 00:33:32;;;;;;;38.30;28.97;;;;;;;;;;4992658;28;20457;-77
2024/03/12 00:35:58;;;;;;;41.50;28.60;;;;;;;;;;4984730;28;20811;-75
2024/03/12 00:38:25;;;;;;;45.97;30.97;;;;;;;;;;4994525;28;20498;-76
2024/03/12 00:40:51;;;;;;;48.13;30.93;;;;;;;;;;4995213;28;20427;-89
2024/03/12 00:43:17;;;;;;;42.40;28.60;;;;;;;;;;4994719;28;20502;-75
2024/03/12 00:45:44;;;;;;;41.37;28.10;;;;;;;;;;4994712;28;20474;-77
2024/03/12 00:48:12;;;;;;;42.50;28.90;;;;;;;;;;4995103;28;20410;-77
2024/03/12 00:50:39;;;;;;;37.80;27.53;;;;;;;;;;4994826;28;20400;-77
2024/03/12 00:53:07;;;;;;;40.87;28.03;;;;;;;;;;4994362;28;20415;-78
2024/03/12 00:55:35;;;;;;;40.67;27.03;;;;;;;;;;4994464;28;20454;-75
2024/03/12 00:58:01;;;;;;;38.00;27.57;;;;;;;;;;4994369;28;20514;-75
2024/03/12 01:00:33;;;;;;;43.80;30.23;;;;;;;;;;4994325;28;20499;-75
2024/03/12 01:02:59;;;;;;;42.23;27.33;;;;;;;;;;4994328;28;20915;-75
2024/03/12 01:05:26;;;;;;;39.63;27.37;;;;;;;;;;4994300;28;20765;-74
2024/03/12 01:07:59;;;;;;;40.27;28.60;;;;;;;;;;4994050;28;20419;-76
2024/03/12 01:10:26;;;;;;;37.70;29.40;;;;;;;;;;4994336;28;20823;-76
2024/03/12 01:12:53;;;;;;;40.87;28.17;;;;;;;;;;4994192;28;20420;-76
2024/03/12 01:15:19;;;;;;;40.47;27.30;;;;;;;;;;4994223;28;20413;-76
2024/03/12 01:17:47;;;;;;;42.50;28.37;;;;;;;;;;4993954;28;20859;-82
2024/03/12 01:20:16;;;;;;;43.70;28.77;;;;;;;;;;4992926;28;20419;-76
2024/03/12 01:22:42;;;;;;;52.07;27.73;;;;;;;;;;4992661;28;20466;-76
2024/03/12 01:25:08;;;;;;;37.03;27.13;;;;;;;;;;4994070;28;20436;-75
2024/03/12 01:27:36;;;;;;;40.77;28.20;;;;;;;;;;4993941;28;20926;-75
2024/03/12 01:30:06;;;;;;;39.90;28.07;;;;;;;;;;4993979;28;20414;-75
2024/03/12 01:32:32;;;;;;;37.23;27.97;;;;;;;;;;4994026;28;20419;-75
2024/03/12 01:34:58;;;;;;;35.17;25.73;;;;;;;;;;4983873;28;20991;-75
2024/03/12 01:37:24;;;;;;;40.23;28.20;;;;;;;;;;4990396;28;20543;-80
2024/03/12 01:39:53;;;;;;;38.67;27.83;;;;;;;;;;4993752;28;20416;-75
2024/03/12 01:42:21;;;;;;;38.70;27.53;;;;;;;;;;4993817;28;20436;-76
2024/03/12 01:44:47;;;;;;;36.80;25.90;;;;;;;;;;4993625;28;20429;-76
2024/03/12 01:47:13;;;;;;;37.70;25.90;;;;;;;;;;4993660;28;20412;-75
2024/03/12 01:49:39;;;;;;;41.13;27.00;;;;;;;;;;4993739;28;20493;-76
2024/03/12 01:52:07;;;;;;;40.10;28.77;;;;;;;;;;4993420;28;20417;-76
2024/03/12 01:54:33;;;;;;;41.60;27.27;;;;;;;;;;4993506;28;20421;-76
2024/03/12 01:56:59;;;;;;;43.53;31.20;;;;;;;;;;4993565;28;20478;-76
2024/03/12 01:59:25;;;;;;;36.80;27.20;;;;;;;;;;4993569;28;20406;-76
2024/03/12 02:01:59;;;;;;;42.17;28.60;;;;;;;;;;4993672;28;20838;-76
2024/03/12 02:04:25;;;;;;;42.83;27.90;;;;;;;;;;4993489;28;20414;-76
2024/03/12 02:06:51;;;;;;;39.63;28.13;;;;;;;;;;4993538;28;20941;-75
2024/03/12 02:09:20;;;;;;;40.40;27.10;;;;;;;;;;4993141;28;20496;-77
2024/03/12 02:11:46;;;;;;;42.43;28.23;;;;;;;;;;4993445;28;20505;-77
2024/03/12 02:14:12;;;;;;;42.03;28.80;;;;;;;;;;4993587;28;20924;-77
2024/03/12 02:16:38;;;;;;;38.07;27.17;;;;;;;;;;4993380;28;20508;-76
2024/03/12 02:19:05;;;;;;;43.47;28.90;;;;;;;;;;4993227;28;20470;-76
2024/03/12 02:21:31;;;;;;;40.87;28.17;;;;;;;;;;4993290;28;20422;-77
2024/03/12 02:23:57;;;;;;;45.10;30.53;;;;;;;;;;4993087;28;20464;-76
2024/03/12 02:26:24;;;;;;;43.70;27.70;;;;;;;;;;4993457;28;20429;-76
2024/03/12 02:28:50;;;;;;;34.13;25.20;;;;;;;;;;4993319;28;20423;-77
2024/03/12 02:31:16;;;;;;;40.33;26.93;;;;;;;;;;4993312;28;20462;-76
2024/03/12 02:33:42;;;;;;;37.77;26.90;;;;;;;;;;4989678;28;20477;-78
2024/03/12 02:36:09;;;;;;;42.47;28.13;;;;;;;;;;4976024;28;20988;-79
2024/03/12 02:38:38;;;;;;;43.80;28.10;;;;;;;;;;4973840;28;20432;-76
2024/03/12 02:41:07;;;;;;;37.50;27.23;;;;;;;;;;4974063;28;20413;-76
2024/03/12 02:43:33;;;;;;;34.03;25.00;;;;;;;;;;4973890;28;20413;-78
2024/03/12 02:45:59;;;;;;;32.30;23.07;;;;;;;;;;4974000;28;20441;-76
2024/03/12 02:48:25;;;;;;;43.57;27.03;;;;;;;;;;4975650;28;20782;-76
2024/03/12 02:50:51;;;;;;;40.53;26.77;;;;;;;;;;4977548;28;20423;-77
2024/03/12 02:53:18;;;;;;;39.53;27.13;;;;;;;;;;4977137;28;20409;-76
2024/03/12 02:55:44;;;;;;;41.63;25.23;;;;;;;;;;4977268;28;20426;-77
2024/03/12 02:58:10;;;;;;;39.80;25.37;;;;;;;;;;4977176;28;20467;-79
2024/03/12 03:00:36;;;;;;;40.13;26.57;;;;;;;;;;4992232;28;20885;-77
2024/03/12 03:03:02;;;;;;;35.00;25.13;;;;;;;;;;4977251;28;20429;-76
2024/03/12 03:05:28;;;;;;;37.70;24.20;;;;;;;;;;4977109;28;20417;-76
2024/03/12 03:07:54;;;;;;;39.70;27.30;;;;;;;;;;4976850;28;20432;-79
2024/03/12 03:10:20;;;;;;;39.97;26.33;;;;;;;;;;4992086;28;20429;-76
2024/03/12 03:12:46;;;;;;;39.67;26.07;;;;;;;;;;4976940;28;20601;-79
2024/03/12 03:15:13;;;;;;;42.67;26.70;;;;;;;;;;4977129;28;20497;-78
2024/03/12 03:17:42;;;;;;;37.60;26.17;;;;;;;;;;4976734;28;20836;-79
2024/03/12 03:20:11;;;;;;;42.47;29.10;;;;;;;;;;4976940;28;20779;-83
2024/03/12 03:22:37;;;;;;;40.00;27.10;;;;;;;;;;4976741;28;20896;-76
2024/03/12 03:25:03;;;;;;;40.27;28.83;;;;;;;;;;4976882;28;20415;-77
2024/03/12 03:27:29;;;;;;;42.30;28.07;;;;;;;;;;4976881;28;20411;-78
2024/03/12 03:29:56;;;;;;;42.27;28.40;;;;;;;;;;4976768;28;20407;-76
2024/03/12 03:32:23;;;;;;;42.93;29.57;;;;;;;;;;4991695;28;20978;-77
2024/03/12 03:34:49;;;;;;;42.70;29.27;;;;;;;;;;4982292;28;20475;-79
2024/03/12 03:37:15;;;;;;;45.53;29.93;;;;;;;;;;4979653;28;20518;-77
2024/03/12 03:39:41;;;;;;;39.40;27.17;;;;;;;;;;4976068;28;20418;-75
2024/03/12 03:42:08;;;;;;;44.70;29.67;;;;;;;;;;4975465;28;20417;-82
2024/03/12 03:44:37;;;;;;;40.57;27.87;;;;;;;;;;4975957;28;20422;-87
2024/03/12 03:47:04;;;;;;;43.27;28.30;;;;;;;;;;4976545;28;20515;-75
2024/03/12 03:49:30;;;;;;;41.57;30.53;;;;;;;;;;4975129;28;20501;-77
2024/03/12 03:51:55;;;;;;;46.73;28.97;;;;;;;;;;4974689;28;20461;-76
2024/03/12 03:54:21;;;;;;;40.80;27.80;;;;;;;;;;4974976;28;20931;-76
2024/03/12 03:56:47;;;;;;;44.17;27.60;;;;;;;;;;4976249;28;20480;-77
2024/03/12 03:59:16;;;;;;;38.50;26.00;;;;;;;;;;4975822;28;20884;-76
2024/03/12 04:01:42;;;;;;;43.17;27.53;;;;;;;;;;4974806;28;20516;-75
2024/03/12 04:04:11;;;;;;;45.90;29.40;;;;;;;;;;4976044;28;20821;-79
2024/03/12 04:06:37;;;;;;;42.37;29.77;;;;;;;;;;4975965;28;20410;-76
2024/03/12 04:09:04;;;;;;;36.10;25.73;;;;;;;;;;4975748;28;20429;-77
2024/03/12 04:11:30;;;;;;;38.93;27.40;;;;;;;;;;4976099;28;20413;-76
2024/03/12 04:13:58;;;;;;;39.33;26.67;;;;;;;;;;4975949;28;20432;-79
2024/03/12 04:16:24;;;;;;;41.57;28.40;;;;;;;;;;4975724;28;20476;-79
2024/03/12 04:18:50;;;;;;;44.70;27.70;;;;;;;;;;4975592;28;20473;-76
2024/03/12 04:21:16;;;;;;;41.97;28.93;;;;;;;;;;4975801;28;20409;-79
2024/03/12 04:23:43;;;;;;;38.63;27.77;;;;;;;;;;4974397;28;20464;-77
2024/03/12 04:26:09;;;;;;;38.20;26.57;;;;;;;;;;4975894;28;20916;-77
2024/03/12 04:28:37;;;;;;;38.63;27.33;;;;;;;;;;4975647;28;20836;-80
2024/03/12 04:31:07;;;;;;;42.17;27.17;;;;;;;;;;4975555;28;20464;-77
2024/03/12 04:33:34;;;;;;;38.37;27.43;;;;;;;;;;4976359;28;20449;-78
2024/03/12 04:36:00;;;;;;;42.13;27.83;;;;;;;;;;4981629;28;20459;-77
2024/03/12 04:38:26;;;;;;;42.00;28.00;;;;;;;;;;4975167;28;20449;-77
2024/03/12 04:40:52;;;;;;;40.63;27.77;;;;;;;;;;4975307;28;20408;-77
2024/03/12 04:43:18;;;;;;;47.30;27.93;;;;;;;;;;4975268;28;20428;-76
2024/03/12 04:45:44;;;;;;;41.10;27.10;;;;;;;;;;4975317;28;20496;-77
2024/03/12 04:48:11;;;;;;;37.73;26.70;;;;;;;;;;4975299;28;20413;-76
2024/03/12 04:50:37;;;;;;;45.57;30.73;;;;;;;;;;4975277;28;20412;-77
2024/03/12 04:53:04;;;;;;;37.83;26.10;;;;;;;;;;4973554;28;20421;-80
2024/03/12 04:55:33;;;;;;;37.50;25.47;;;;;;;;;;4975024;28;20429;-77
2024/03/12 04:58:00;;;;;;;34.47;25.53;;;;;;;;;;4974932;28;20477;-75
2024/03/12 05:00:25;;;;;;;36.47;25.70;;;;;;;;;;4974981;28;20758;-78
2024/03/12 05:02:52;;;;;;;39.60;26.83;;;;;;;;;;4974948;28;20422;-78
2024/03/12 05:05:19;;;;;;;34.63;25.47;;;;;;;;;;4974977;28;20419;-77
2024/03/12 05:07:45;;;;;;;32.10;24.20;;;;;;;;;;4973268;28;20446;-76
2024/03/12 05:10:11;;;;;;;39.67;24.77;;;;;;;;;;4973102;28;20434;-77
2024/03/12 05:12:37;;;;;;;36.60;25.87;;;;;;;;;;4973379;28;20420;-77
2024/03/12 05:15:04;;;;;;;39.37;26.23;;;;;;;;;;4973557;28;20417;-75
2024/03/12 05:17:30;;;;;;;39.20;27.60;;;;;;;;;;4974501;28;20487;-75
2024/03/12 05:19:56;;;;;;;40.00;28.20;;;;;;;;;;4974739;28;20761;-77
2024/03/12 05:22:22;;;;;;;39.80;27.20;;;;;;;;;;4974252;28;20421;-76
2024/03/12 05:24:48;;;;;;;32.80;24.23;;;;;;;;;;4974576;28;20926;-75
2024/03/12 05:27:21;;;;;;;37.23;26.40;;;;;;;;;;4974556;28;20427;-75
2024/03/12 05:29:52;;;;;;;39.30;28.10;;;;;;;;;;4974613;28;20413;-76
2024/03/12 05:32:18;;;;;;;39.37;27.13;;;;;;;;;;4974557;28;20922;-76
2024/03/12 05:34:45;;;;;;;42.97;27.50;;;;;;;;;;4980699;28;20439;-77
2024/03/12 05:37:28;;;;;;;37.60;25.70;;;;;;;;;;4978359;28;20533;-76
2024/03/12 05:40:13;;;;;;;35.10;26.93;;;;;;;;;;4974896;28;20440;-77
2024/03/12 05:48:09;;;;;;;34.47;27.23;;;;;;;;;;4974438;28;20459;-77
2024/03/12 05:50:36;;;;;;;40.23;27.97;;;;;;;;;;4974281;28;20415;-76
2024/03/12 05:53:02;;;;;;;39.00;26.37;;;;;;;;;;4973941;28;20444;-78
2024/03/12 05:55:28;;;;;;;33.87;24.53;;;;;;;;;;4974263;28;20451;-76
2024/03/12 05:57:53;;;;;;;39.60;27.60;;;;;;;;;;4974120;28;20554;-81
2024/03/12 06:00:19;;;;;;;33.70;25.27;;;;;;;;;;4974187;28;20458;-77
2024/03/12 06:02:45;;;;;;;31.50;23.60;;;;;;;;;;4974099;28;20438;-79
2024/03/12 06:05:14;;;;;;;32.70;27.20;;;;;;;;;;4972853;28;20450;-77
2024/03/12 06:07:41;;;;;;;33.73;26.17;;;;;;;;;;4972606;28;20426;-79
2024/03/12 06:10:07;;;;;;;33.43;25.80;;;;;;;;;;4974101;28;20417;-77
2024/03/12 06:12:33;;;;;;;34.43;24.40;;;;;;;;;;4974077;28;20407;-76
2024/03/12 06:14:59;;;;;;;34.00;25.57;;;;;;;;;;4974096;28;20458;-77
2024/03/12 06:17:26;;;;;;;34.30;27.33;;;;;;;;;;4973688;28;20835;-77
2024/03/12 06:19:51;;;;;;;36.40;25.07;;;;;;;;;;4974067;28;20512;-76
2024/03/12 06:22:18;;;;;;;34.80;25.10;;;;;;;;;;4975171;28;20574;-76
2024/03/12 06:24:47;;;;;;;33.10;23.20;;;;;;;;;;4977866;28;20538;-79
2024/03/12 06:27:13;;;;;;;30.40;23.77;;;;;;;;;;4977779;28;20407;-76
2024/03/12 06:29:39;;;;;;;31.90;24.20;;;;;;;;;;4977769;28;20429;-77
2024/03/12 06:32:06;;;;;;;33.33;24.00;;;;;;;;;;4977776;28;20414;-77
2024/03/12 06:34:32;;;;;;;35.90;24.57;;;;;;;;;;4982358;28;20226;-81
2024/03/12 06:36:58;;;;;;;32.47;27.85;;;;;;;;;;4982159;28;20879;-76
2024/03/12 06:39:36;;;;;;;31.80;23.17;;;;;;;;;;4977475;28;20179;-79
2024/03/12 06:42:02;;;;;;;33.90;25.07;;;;;;;;;;4977587;28;20183;-78
2024/03/12 06:44:29;;;;;;;31.63;23.40;;;;;;;;;;4977204;28;20545;-82
2024/03/12 06:46:58;;;;;;;31.33;23.87;;;;;;;;;;4976295;28;20232;-82
2024/03/12 06:49:24;;;;;;;27.30;22.33;;;;;;;;;;4977320;28;20423;-84
2024/03/12 06:51:50;;;;;;;30.67;22.63;;;;;;;;;;4976959;28;20477;-76
2024/03/12 06:54:16;;;;;;;27.10;23.97;;;;;;;;;;4977174;28;20413;-76
2024/03/12 06:56:43;;;;;;;33.20;22.77;;;;;;;;;;4975941;28;20835;-77
2024/03/12 06:59:10;;;;;;;32.53;23.10;;;;;;;;;;4977271;28;20520;-76
2024/03/12 07:01:43;;;;;;;31.57;23.43;;;;;;;;;;4976985;28;20425;-78
2024/03/12 07:04:09;;;;;;;29.23;20.80;;;;;;;;;;4977087;28;20500;-80
2024/03/12 07:06:36;;;;;;;29.60;23.10;;;;;;;;;;4976828;28;20419;-81
2024/03/12 07:09:08;;;;;;;31.70;22.07;;;;;;;;;;4977045;28;20407;-80
2024/03/12 07:11:39;;;;;;;32.53;22.03;;;;;;;;;;4976947;28;20471;-82
2024/03/12 07:14:12;;;;;;;29.57;22.47;;;;;;;;;;4976934;28;20415;-83
2024/03/12 07:16:41;;;;;;;29.50;22.57;;;;;;;;;;4991764;28;20505;-79
2024/03/12 07:19:08;;;;;;;34.27;24.07;;;;;;;;;;4996397;28;20515;-78
2024/03/12 07:21:34;;;;;;;29.23;20.03;;;;;;;;;;4994852;28;20946;-78
2024/03/12 07:24:00;;;;;;;29.77;20.83;;;;;;;;;;4994627;28;20479;-78
2024/03/12 07:26:26;;;;;;;30.90;20.87;;;;;;;;;;4996698;28;20195;-81
2024/03/12 07:28:53;;;;;;;32.30;20.57;;;;;;;;;;4996531;28;20433;-77
2024/03/12 07:31:19;;;;;;;31.03;20.93;;;;;;;;;;4995098;28;20429;-79
2024/03/12 07:33:45;;;;;;;30.60;21.97;;;;;;;;;;4993063;28;20439;-80
2024/03/12 07:36:12;;;;;;;28.33;21.93;;;;;;;;;;4984433;28;20416;-76
2024/03/12 07:38:38;;;;;;;25.67;19.93;;;;;;;;;;4976399;28;20878;-76
2024/03/12 07:41:08;;;;;;;25.37;18.07;;;;;;;;;;4976547;28;20418;-78
2024/03/12 07:43:35;;;;;;;29.07;20.60;;;;;;;;;;4975494;28;20216;-83
2024/03/12 07:46:02;;;;;;;27.50;20.10;;;;;;;;;;4976847;28;20491;-77
2024/03/12 07:48:28;;;;;;;31.27;18.80;;;;;;;;;;4977054;28;20472;-83
2024/03/12 07:50:58;;;;;;;26.60;19.83;;;;;;;;;;4976087;28;20454;-82
2024/03/12 07:53:28;;;;;;;29.37;19.40;;;;;;;;;;4976322;28;20503;-76
2024/03/12 07:55:56;;;;;;;22.77;18.90;;;;;;;;;;4976442;28;20498;-79
2024/03/12 07:58:22;;;;;;;25.33;19.77;;;;;;;;;;4976414;28;20423;-77
2024/03/12 08:00:48;;;;;;;24.70;17.97;;;;;;;;;;4975127;28;20418;-76
2024/03/12 08:03:14;;;;;;;22.20;18.00;;;;;;;;;;4975942;28;20412;-78
2024/03/12 08:05:40;;;;;;;23.47;18.53;;;;;;;;;;4976072;28;20412;-75
2024/03/12 08:08:07;;;;;;;25.57;19.27;;;;;;;;;;4975693;28;20532;-77
2024/03/12 08:10:33;;;;;;;24.17;19.00;;;;;;;;;;4975988;28;20803;-77
2024/03/12 08:13:00;;;;;;;22.87;19.00;;;;;;;;;;4976145;28;20481;-76
2024/03/12 08:15:27;;;;;;;29.73;20.80;;;;;;;;;;4975444;28;20955;-76
2024/03/12 08:17:54;;;;;;;26.70;18.77;;;;;;;;;;4975531;28;20493;-81
2024/03/12 08:20:20;;;;;;;25.50;19.50;;;;;;;;;;4975594;28;20412;-77
2024/03/12 08:22:47;;;;;;;23.90;19.33;;;;;;;;;;4974999;28;20520;-79
2024/03/12 08:25:13;;;;;;;26.03;19.17;;;;;;;;;;4975705;28;20404;-80
2024/03/12 08:27:40;;;;;;;23.57;19.13;;;;;;;;;;4975443;28;20439;-81
2024/03/12 08:30:08;;;;;;;24.73;18.80;;;;;;;;;;4975910;28;20801;-80
2024/03/12 08:32:35;;;;;;;23.63;17.80;;;;;;;;;;4976087;28;20478;-81
2024/03/12 08:35:00;;;;;;;22.73;18.13;;;;;;;;;;4984046;28;20467;-78
2024/03/12 08:37:27;;;;;;;27.00;18.80;;;;;;;;;;4977320;28;20516;-76
2024/03/12 08:39:54;;;;;;;22.80;18.27;;;;;;;;;;4975501;28;20429;-77
2024/03/12 08:42:20;;;;;;;21.10;17.50;;;;;;;;;;4975568;28;20425;-75
2024/03/12 08:44:46;;;;;;;24.67;18.57;;;;;;;;;;4974787;28;20427;-77
2024/03/12 08:47:12;;;;;;;21.27;17.03;;;;;;;;;;4974800;28;20474;-77
2024/03/12 08:49:38;;;;;;;22.40;15.97;;;;;;;;;;4975336;28;20419;-78
2024/03/12 08:52:04;;;;;;;25.93;17.70;;;;;;;;;;4974810;28;20417;-79
2024/03/12 08:54:31;;;;;;;26.33;19.20;;;;;;;;;;4975196;28;20438;-75
2024/03/12 08:56:57;;;;;;;23.40;16.73;;;;;;;;;;4975165;28;20480;-75
2024/03/12 08:59:23;;;;;;;20.93;16.60;;;;;;;;;;4974970;28;20404;-77
2024/03/12 09:01:49;;;;;;;19.37;15.57;;;;;;;;;;4975162;28;20408;-76
2024/03/12 09:04:15;;;;;;;20.83;16.80;;;;;;;;;;4973661;28;20419;-76
2024/03/12 09:06:41;;;;;;;19.27;16.23;;;;;;;;;;4974223;28;20181;-75
2024/03/12 09:09:07;;;;;;;21.27;15.47;;;;;;;;;;4974876;28;20803;-78
2024/03/12 09:11:33;;;;;;;20.53;16.23;;;;;;;;;;4974641;28;20459;-76
2024/03/12 09:14:00;;;;;;;19.07;14.80;;;;;;;;;;4974839;28;20430;-78
2024/03/12 09:16:26;;;;;;;18.10;14.20;;;;;;;;;;4974632;28;20511;-85
2024/03/12 09:18:53;;;;;;;16.07;13.20;;;;;;;;;;4972335;28;20832;-78
2024/03/12 09:21:20;;;;;;;17.57;13.67;;;;;;;;;;4973927;28;20440;-75
2024/03/12 09:23:46;;;;;;;19.13;14.93;;;;;;;;;;4974696;28;20430;-82
2024/03/12 09:26:12;;;;;;;15.60;13.00;;;;;;;;;;4974654;28;20510;-79
2024/03/12 09:28:38;;;;;;;18.40;14.27;;;;;;;;;;4974486;28;20473;-76
2024/03/12 09:31:05;;;;;;;21.43;13.57;;;;;;;;;;4974480;28;20416;-77
2024/03/12 09:33:31;;;;;;;19.33;13.80;;;;;;;;;;4975601;28;20431;-77
2024/03/12 09:35:57;;;;;;;18.30;12.30;;;;;;;;;;4984350;28;20416;-80
2024/03/12 09:38:24;;;;;;;13.73;12.20;;;;;;;;;;4974749;28;20416;-79
2024/03/12 09:40:50;;;;;;;17.33;11.83;;;;;;;;;;4974636;28;20540;-80
2024/03/12 09:43:18;;;;;;;15.90;11.50;;;;;;;;;;4974515;28;20421;-77
2024/03/12 09:45:45;;;;;;;14.53;11.67;;;;;;;;;;4974385;28;20456;-78
2024/03/12 09:48:13;;;;;;;15.00;11.80;;;;;;;;;;4974047;28;20412;-80
2024/03/12 09:50:38;;;;;;;17.63;13.03;;;;;;;;;;4972854;28;20476;-75
2024/03/12 09:53:05;;;;;;;16.40;11.73;;;;;;;;;;4973949;28;20404;-78
2024/03/12 09:55:31;;;;;;;15.30;11.30;;;;;;;;;;4974186;28;20191;-75
2024/03/12 09:57:57;;;;;;;15.17;10.43;;;;;;;;;;4973784;28;20556;-75
2024/03/12 10:00:27;;;;;;;15.50;11.57;;;;;;;;;;4974214;28;20415;-76
2024/03/12 10:02:55;;;;;;;14.70;11.53;;;;;;;;;;4974235;28;20455;-75
2024/03/12 10:05:21;;;;;;;11.23;9.70;;;;;;;;;;4974170;28;20443;-76
2024/03/12 10:08:08;;;;;;;13.00;9.40;;;;;;;;;;4973774;28;20484;-75
2024/03/12 10:10:40;;;;;;;13.77;9.83;;;;;;;;;;4973968;28;20448;-76
2024/03/12 10:13:14;;;;;;;14.77;9.97;;;;;;;;;;4973997;28;20419;-75
2024/03/12 10:15:48;;;;;;;11.77;8.77;;;;;;;;;;4974124;28;20427;-75
2024/03/12 10:18:16;;;;;;;12.10;8.70;;;;;;;;;;4973805;28;20516;-75
2024/03/12 10:20:49;;;;;;;14.30;9.07;;;;;;;;;;4973579;28;20417;-75
2024/03/12 10:23:16;;;;;;;14.30;9.13;;;;;;;;;;4973926;28;20456;-75
2024/03/12 10:25:44;;;;;;;10.40;7.30;;;;;;;;;;4973927;28;20462;-76
2024/03/12 10:28:11;;;;;;;9.97;7.60;;;;;;;;;;4973971;28;20419;-76
2024/03/12 10:30:37;;;;;;;10.23;8.07;;;;;;;;;;4973954;28;20419;-75
2024/03/12 10:33:20;;;;;;;12.60;8.13;;;;;;;;;;4973881;28;20415;-77
2024/03/12 10:35:47;;;;;;;11.10;9.33;;;;;;;;;;4983790;28;20956;-76
2024/03/12 10:38:25;;;;;;;10.43;8.00;;;;;;;;;;4973654;28;20483;-81
2024/03/12 10:40:52;;;;;;;8.87;7.30;;;;;;;;;;4973801;28;20406;-76
2024/03/12 10:43:20;;;;;;;8.57;6.63;;;;;;;;;;4972380;28;20429;-76
2024/03/12 10:45:49;;;;;;;8.87;6.43;;;;;;;;;;4973758;28;20440;-76
2024/03/12 10:48:15;;;;;;;9.80;7.10;;;;;;;;;;4973558;28;20446;-75
2024/03/12 10:50:42;;;;;;;8.97;6.33;;;;;;;;;;4973309;28;20830;-78
2024/03/12 10:53:11;;;;;;;8.50;7.20;;;;;;;;;;4973701;28;20415;-75
2024/03/12 10:55:37;;;;;;;10.83;7.87;;;;;;;;;;4973587;28;20750;-75
2024/03/12 10:58:04;;;;;;;9.17;7.27;;;;;;;;;;4973542;28;21042;-76
2024/03/12 11:00:30;;;;;;;10.17;7.20;;;;;;;;;;4973529;28;20412;-77
2024/03/12 11:02:57;;;;;;;12.23;8.30;;;;;;;;;;4973662;28;20423;-77
2024/03/12 11:05:32;;;;;;;10.47;7.33;;;;;;;;;;4973635;28;20416;-77
2024/03/12 11:07:59;;;;;;;13.00;8.73;;;;;;;;;;4973533;28;20407;-76
2024/03/12 11:10:27;;;;;;;13.43;9.40;;;;;;;;;;4976579;28;20420;-75
2024/03/12 11:12:54;;;;;;;13.00;9.50;;;;;;;;;;4977043;28;20473;-76
2024/03/12 11:15:20;;;;;;;10.47;8.13;;;;;;;;;;4976992;28;20421;-81
2024/03/12 11:17:48;;;;;;;11.30;9.30;;;;;;;;;;4976771;28;20495;-76
2024/03/12 11:20:17;;;;;;;15.60;10.27;;;;;;;;;;4976947;28;20802;-77
2024/03/12 11:22:44;;;;;;;13.87;11.43;;;;;;;;;;4976591;28;20415;-78
2024/03/12 11:25:11;;;;;;;17.00;13.03;;;;;;;;;;4976803;28;20443;-76
2024/03/12 11:27:37;;;;;;;16.77;12.57;;;;;;;;;;4976562;28;20404;-78
2024/03/12 11:30:18;;;;;;;24.43;17.60;;;;;;;;;;4976708;28;20420;-76
2024/03/12 11:32:45;;;;;;;26.27;17.83;;;;;;;;;;4976709;28;20775;-78
2024/03/12 11:35:17;;;;;;;20.17;15.07;;;;;;;;;;4986305;28;20806;-76
2024/03/12 11:37:46;;;;;;;19.17;15.07;;;;;;;;;;4976192;28;20483;-76
2024/03/12 11:40:28;;;;;;;18.57;14.60;;;;;;;;;;4976328;28;20412;-76
2024/03/12 11:42:55;;;;;;;20.47;14.73;;;;;;;;;;4975104;28;20932;-76
2024/03/12 11:45:48;;;;;;;21.00;15.70;;;;;;;;;;4976189;28;20416;-76
2024/03/12 11:48:20;;;;;;;19.23;15.10;;;;;;;;;;4974554;28;20439;-76
2024/03/12 11:50:55;;;;;;;18.97;14.63;;;;;;;;;;4975425;28;20468;-77
2024/03/12 11:53:21;;;;;;;19.57;14.93;;;;;;;;;;4973291;28;20416;-78
2024/03/12 11:56:06;;;;;;;20.23;15.67;;;;;;;;;;4975466;28;20421;-76
2024/03/12 11:58:40;;;;;;;22.23;16.50;;;;;;;;;;4975849;28;20441;-76
2024/03/12 12:01:09;;;;;;;21.23;15.13;;;;;;;;;;4974610;28;20425;-77
2024/03/12 12:03:35;;;;;;;17.20;13.70;;;;;;;;;;4975927;28;20923;-79
2024/03/12 12:06:02;;;;;;;19.67;14.63;;;;;;;;;;4975676;28;20416;-77
2024/03/12 12:08:29;;;;;;;21.20;15.63;;;;;;;;;;4975870;28;20447;-79
2024/03/12 12:10:59;;;;;;;20.60;15.93;;;;;;;;;;4975805;28;20844;-78
2024/03/12 12:13:26;;;;;;;17.67;15.27;;;;;;;;;;4975558;28;20459;-88
2024/03/12 12:15:56;;;;;;;20.83;15.90;;;;;;;;;;4975041;28;20420;-77
2024/03/12 12:18:22;;;;;;;21.47;13.43;;;;;;;;;;4974422;28;20470;-77
2024/03/12 12:20:48;;;;;;;21.20;16.13;;;;;;;;;;4974345;28;20414;-76
2024/03/12 12:23:14;;;;;;;22.93;17.50;;;;;;;;;;4975641;28;20182;-76
2024/03/12 12:25:41;;;;;;;22.37;18.53;;;;;;;;;;4975487;28;20437;-76
2024/03/12 12:28:08;;;;;;;24.00;19.20;;;;;;;;;;4975462;28;20419;-76
2024/03/12 12:30:35;;;;;;;20.70;16.60;;;;;;;;;;4975426;28;20422;-75
2024/03/12 12:33:01;;;;;;;20.10;16.03;;;;;;;;;;4975360;28;20503;-81
2024/03/12 12:35:28;;;;;;;23.70;16.13;;;;;;;;;;4986089;28;20440;-76
2024/03/12 12:37:54;;;;;;;24.93;17.83;;;;;;;;;;4975415;28;20477;-77
2024/03/12 12:40:21;;;;;;;21.20;18.27;;;;;;;;;;4975489;28;20504;-76
2024/03/12 12:42:50;;;;;;;21.90;17.10;;;;;;;;;;4975391;28;20412;-75
2024/03/12 12:45:16;;;;;;;25.00;18.30;;;;;;;;;;4975409;28;20911;-75
2024/03/12 12:47:48;;;;;;;24.10;18.33;;;;;;;;;;4975347;28;20773;-75
2024/03/12 12:50:24;;;;;;;19.20;15.27;;;;;;;;;;4974769;28;20910;-76
2024/03/12 12:52:56;;;;;;;21.50;16.80;;;;;;;;;;4975266;28;20502;-75
2024/03/12 12:55:22;;;;;;;23.07;18.10;;;;;;;;;;4975237;28;20503;-76
2024/03/12 12:57:57;;;;;;;23.00;17.63;;;;;;;;;;4975062;28;20565;-76
2024/03/12 13:00:23;;;;;;;20.60;15.97;;;;;;;;;;4975079;28;20416;-75
2024/03/12 13:02:49;;;;;;;23.03;18.00;;;;;;;;;;4973802;28;20494;-75
2024/03/12 13:05:22;;;;;;;23.53;17.70;;;;;;;;;;4974612;28;20413;-76
2024/03/12 13:07:48;;;;;;;23.73;18.20;;;;;;;;;;4974981;28;20207;-77
2024/03/12 13:10:16;;;;;;;24.20;19.90;;;;;;;;;;4974906;28;20412;-77
2024/03/12 13:12:42;;;;;;;22.63;18.10;;;;;;;;;;4974935;28;21006;-76
2024/03/12 13:15:22;;;;;;;28.37;19.33;;;;;;;;;;4978393;28;20423;-76
2024/03/12 13:17:48;;;;;;;26.00;20.70;;;;;;;;;;4993985;28;20825;-77
2024/03/12 13:20:14;;;;;;;24.33;17.40;;;;;;;;;;4993902;28;20416;-77
2024/03/12 13:22:40;;;;;;;25.77;18.97;;;;;;;;;;4994086;28;20192;-77
2024/03/12 13:25:06;;;;;;;27.00;18.90;;;;;;;;;;4993863;28;20409;-75
2024/03/12 13:27:32;;;;;;;25.50;19.10;;;;;;;;;;4994024;28;20425;-75
2024/03/12 13:29:58;;;;;;;27.63;19.43;;;;;;;;;;4993924;28;20400;-77
2024/03/12 13:32:23;;;;;;;23.13;18.00;;;;;;;;;;4993426;28;20657;-78
2024/03/12 13:34:49;;;;;;;27.57;20.00;;;;;;;;;;4987756;28;20181;-79
2024/03/12 13:37:15;;;;;;;27.73;19.70;;;;;;;;;;4978067;28;20684;-78
2024/03/12 13:39:41;;;;;;;29.37;20.20;;;;;;;;;;4974510;28;20179;-75
2024/03/12 13:42:10;;;;;;;24.00;17.97;;;;;;;;;;4974513;28;20182;-76
2024/03/12 13:44:37;;;;;;;24.53;18.53;;;;;;;;;;4974435;28;20222;-76
2024/03/12 13:47:03;;;;;;;27.40;19.13;;;;;;;;;;4974435;28;20512;-76
2024/03/12 13:49:29;;;;;;;25.63;19.90;;;;;;;;;;4974330;28;20498;-76
2024/03/12 13:51:55;;;;;;;29.37;20.70;;;;;;;;;;4973948;28;20415;-76
2024/03/12 13:54:21;;;;;;;27.57;19.00;;;;;;;;;;4974172;28;20500;-76
2024/03/12 13:56:46;;;;;;;26.33;18.30;;;;;;;;;;4974119;28;20640;-76
2024/03/12 13:59:14;;;;;;;26.37;18.80;;;;;;;;;;4974270;28;20411;-75
2024/03/12 14:01:40;;;;;;;29.57;19.90;;;;;;;;;;4974094;28;20179;-76
2024/03/12 14:04:06;;;;;;;26.97;19.80;;;;;;;;;;4974586;28;20967;-75
2024/03/12 14:06:33;;;;;;;28.30;20.37;;;;;;;;;;4973780;28;20455;-76
2024/03/12 14:08:59;;;;;;;24.47;18.53;;;;;;;;;;4974014;28;20415;-76
2024/03/12 14:11:25;;;;;;;28.57;18.50;;;;;;;;;;4973963;28;20787;-75
2024/03/12 14:13:51;;;;;;;27.87;18.30;;;;;;;;;;4974110;28;20184;-76
2024/03/12 14:16:17;;;;;;;26.07;18.80;;;;;;;;;;4973953;28;20428;-75
2024/03/12 14:18:44;;;;;;;27.23;19.17;;;;;;;;;;4973884;28;20219;-77
2024/03/12 14:21:12;;;;;;;26.60;18.93;;;;;;;;;;4972506;28;20183;-77
2024/03/12 14:23:38;;;;;;;26.83;18.47;;;;;;;;;;4973978;28;20505;-77
2024/03/12 14:26:04;;;;;;;27.07;18.50;;;;;;;;;;4973940;28;20505;-76